createdAt,value
2023-05-09T00:02:15.176Z,11.75
2023-05-09T00:04:42.428Z,11.59
2023-05-09T00:07:10.530Z,12.11
2023-05-09T00:09:37.610Z,11.70
2023-05-09T00:12:05.328Z,12.52
2023-05-09T00:14:33.491Z,12.48
2023-05-09T00:17:00.728Z,11.97
2023-05-09T00:19:27.824Z,11.92
2023-05-09T00:21:54.989Z,11.83
2023-05-09T00:24:22.083Z,11.92
2023-05-09T00:26:49.157Z,12.00
2023-05-09T00:29:16.233Z,12.46
2023-05-09T00:31:43.354Z,12.38
2023-05-09T00:34:10.905Z,12.42
2023-05-09T00:36:37.981Z,12.07
2023-05-09T00:39:05.529Z,12.34
2023-05-09T00:41:32.585Z,12.70
2023-05-09T00:43:59.650Z,12.67
2023-05-09T00:46:26.941Z,12.35
2023-05-09T00:48:54.227Z,11.94
2023-05-09T00:51:21.846Z,12.23
2023-05-09T00:53:48.977Z,12.39
2023-05-09T00:56:16.415Z,11.73
2023-05-09T00:58:43.660Z,11.74
2023-05-09T01:01:11.332Z,11.89
2023-05-09T01:03:41.584Z,11.72
2023-05-09T01:06:52.509Z,11.17
2023-05-09T01:09:55.745Z,11.00
2023-05-09T01:12:49.721Z,10.92
2023-05-09T01:16:06.251Z,10.81
2023-05-09T01:19:29.326Z,10.48
2023-05-09T01:21:59.424Z,10.20
2023-05-09T01:25:12.986Z,10.38
2023-05-09T01:28:13.276Z,10.71
2023-05-09T01:30:46.200Z,10.68
2023-05-09T01:33:19.210Z,10.53
2023-05-09T01:35:57.389Z,10.64
2023-05-09T01:38:27.803Z,10.57
2023-05-09T01:40:56.934Z,10.78
2023-05-09T01:43:29.463Z,10.34
2023-05-09T01:45:58.515Z,10.30
2023-05-09T01:48:28.123Z,10.15
2023-05-09T01:50:57.456Z,10.10
2023-05-09T01:53:27.475Z,9.79
2023-05-09T01:55:56.964Z,9.91
2023-05-09T01:58:25.527Z,9.88
2023-05-09T02:00:52.983Z,9.68
2023-05-09T02:03:21.901Z,10.10
2023-05-09T02:05:50.377Z,10.06
2023-05-09T02:08:21.192Z,10.14
2023-05-09T02:10:49.843Z,10.15
2023-05-09T02:13:16.982Z,10.13
2023-05-09T02:15:45.228Z,10.10
2023-05-09T02:18:13.692Z,9.85
2023-05-09T02:20:41.053Z,10.07
2023-05-09T02:23:08.412Z,9.79
2023-05-09T02:25:35.722Z,9.78
2023-05-09T02:28:04.548Z,9.90
2023-05-09T02:30:40.410Z,9.54
2023-05-09T02:33:12.454Z,9.67
2023-05-09T02:35:44.684Z,9.68
2023-05-09T02:38:13.130Z,9.58
2023-05-09T02:40:42.262Z,9.58
2023-05-09T02:43:09.664Z,9.73
2023-05-09T02:45:36.956Z,9.47
2023-05-09T02:48:06.878Z,9.48
2023-05-09T02:50:35.569Z,9.69
2023-05-09T02:53:02.595Z,9.41
2023-05-09T02:55:29.736Z,9.37
2023-05-09T02:58:09.233Z,9.14
2023-05-09T03:00:40.271Z,9.38
2023-05-09T03:03:07.392Z,9.10
2023-05-09T03:05:34.619Z,9.39
2023-05-09T03:08:01.661Z,9.34
2023-05-09T03:10:28.740Z,9.06
2023-05-09T03:12:55.885Z,9.34
2023-05-09T03:15:23.767Z,9.29
2023-05-09T03:17:50.856Z,9.26
2023-05-09T03:20:18.097Z,9.14
2023-05-09T03:22:45.357Z,9.13
2023-05-09T03:25:12.627Z,9.50
2023-05-09T03:27:39.959Z,9.47
2023-05-09T03:30:08.138Z,9.56
2023-05-09T03:32:35.295Z,9.17
2023-05-09T03:35:02.447Z,9.54
2023-05-09T03:37:29.915Z,9.18
2023-05-09T03:39:57.113Z,9.36
2023-05-09T03:42:24.178Z,9.68
2023-05-09T03:44:51.367Z,9.80
2023-05-09T03:47:18.396Z,9.78
2023-05-09T03:49:46.277Z,9.83
2023-05-09T03:52:13.951Z,10.06
2023-05-09T03:54:41.001Z,9.78
2023-05-09T03:57:08.121Z,9.68
2023-05-09T03:59:35.222Z,9.49
2023-05-09T04:02:02.967Z,10.20
2023-05-09T04:04:30.232Z,10.43
2023-05-09T04:06:58.493Z,10.19
2023-05-09T04:09:25.885Z,10.32
2023-05-09T04:11:52.992Z,10.71
2023-05-09T04:14:20.115Z,10.25
2023-05-09T04:16:47.198Z,11.10
2023-05-09T04:19:14.477Z,10.97
2023-05-09T04:21:41.688Z,11.02
2023-05-09T04:24:08.768Z,11.22
2023-05-09T04:26:38.294Z,10.88
2023-05-09T04:29:05.456Z,11.84
2023-05-09T04:31:32.807Z,11.51
2023-05-09T04:34:00.000Z,11.71
2023-05-09T04:36:27.716Z,11.71
2023-05-09T04:38:55.078Z,11.99
2023-05-09T04:41:23.028Z,12.89
2023-05-09T04:43:50.105Z,12.67
2023-05-09T04:46:17.268Z,13.12
2023-05-09T04:48:44.896Z,13.65
2023-05-09T04:51:12.076Z,13.27
2023-05-09T04:53:39.308Z,12.93
2023-05-09T04:56:06.699Z,12.62
2023-05-09T04:58:38.234Z,13.05
2023-05-09T05:01:06.211Z,13.31
2023-05-09T05:03:33.663Z,12.88
2023-05-09T05:06:01.060Z,13.86
2023-05-09T05:08:28.088Z,13.23
2023-05-09T05:10:55.228Z,13.70
2023-05-09T05:13:22.447Z,14.13
2023-05-09T05:15:49.949Z,13.67
2023-05-09T05:18:17.093Z,14.14
2023-05-09T05:20:44.212Z,15.29
2023-05-09T05:23:11.266Z,15.20
2023-05-09T05:25:38.815Z,14.56
2023-05-09T05:28:06.002Z,14.31
2023-05-09T05:30:34.363Z,14.19
2023-05-09T05:33:02.175Z,14.21
2023-05-09T05:35:29.412Z,14.37
2023-05-09T05:37:59.887Z,15.11
2023-05-09T05:40:26.968Z,14.64
2023-05-09T05:42:54.422Z,15.56
2023-05-09T05:45:24.103Z,15.74
2023-05-09T05:47:51.290Z,16.01
2023-05-09T05:50:18.844Z,15.84
2023-05-09T05:52:45.968Z,15.86
2023-05-09T05:55:13.454Z,15.71
2023-05-09T05:57:41.112Z,15.00
2023-05-09T06:00:11.173Z,15.09
2023-05-09T06:02:38.867Z,15.85
2023-05-09T06:05:07.160Z,16.32
2023-05-09T06:07:34.334Z,16.56
2023-05-09T06:10:12.139Z,14.93
2023-05-09T06:12:39.238Z,15.31
2023-05-09T06:15:07.425Z,15.91
2023-05-09T06:17:39.746Z,16.54
2023-05-09T06:20:07.805Z,15.54
2023-05-09T06:22:35.009Z,15.38
2023-05-09T06:25:02.294Z,16.59
2023-05-09T06:27:29.530Z,15.77
2023-05-09T06:29:57.134Z,15.36
2023-05-09T06:32:31.791Z,15.69
2023-05-09T06:34:58.824Z,14.59
2023-05-09T06:37:26.336Z,16.23
2023-05-09T06:39:54.492Z,16.08
2023-05-09T06:42:24.740Z,16.05
2023-05-09T06:44:51.840Z,15.18
2023-05-09T06:47:19.463Z,16.36
2023-05-09T06:49:49.076Z,16.82
2023-05-09T06:52:16.331Z,16.10
2023-05-09T06:54:47.411Z,16.52
2023-05-09T06:57:23.646Z,15.27
2023-05-09T06:59:50.859Z,15.35
2023-05-09T07:02:17.890Z,16.25
2023-05-09T07:04:45.388Z,15.43
2023-05-09T07:07:12.667Z,15.92
2023-05-09T07:09:39.807Z,16.68
2023-05-09T07:12:24.389Z,15.97
2023-05-09T07:14:51.730Z,15.78
2023-05-09T07:17:23.031Z,16.15
2023-05-09T07:19:51.674Z,16.31
2023-05-09T07:22:18.885Z,17.01
2023-05-09T07:24:46.540Z,16.80
2023-05-09T07:27:13.889Z,16.54
2023-05-09T07:29:41.179Z,16.69
2023-05-09T07:32:09.213Z,16.06
2023-05-09T07:34:36.776Z,16.00
2023-05-09T07:37:04.082Z,17.10
2023-05-09T07:39:31.292Z,17.32
2023-05-09T07:41:58.495Z,17.77
2023-05-09T07:44:25.762Z,18.35
2023-05-09T07:46:55.328Z,18.84
2023-05-09T07:49:23.015Z,18.70
2023-05-09T07:51:54.606Z,18.54
2023-05-09T07:54:24.203Z,18.06
2023-05-09T07:56:51.384Z,18.23
2023-05-09T07:59:21.900Z,18.26
2023-05-09T08:01:50.648Z,18.48
2023-05-09T08:04:17.785Z,18.70
2023-05-09T08:06:44.856Z,19.03
2023-05-09T08:09:13.370Z,18.75
2023-05-09T08:11:40.804Z,18.33
2023-05-09T08:14:08.219Z,18.66
2023-05-09T08:16:38.947Z,17.84
2023-05-09T08:19:08.550Z,17.90
2023-05-09T08:21:40.663Z,18.93
2023-05-09T08:24:09.638Z,19.38
2023-05-09T08:26:36.750Z,18.90
2023-05-09T08:29:03.943Z,18.48
2023-05-09T08:31:33.144Z,19.30
2023-05-09T08:34:00.963Z,20.03
2023-05-09T08:36:28.224Z,18.72
2023-05-09T08:38:55.471Z,17.97
2023-05-09T08:41:29.498Z,19.11
2023-05-09T08:43:56.884Z,18.94
2023-05-09T08:46:39.567Z,19.17
2023-05-09T08:49:07.284Z,19.33
2023-05-09T08:51:35.934Z,19.18
2023-05-09T08:54:03.902Z,20.55
2023-05-09T08:56:34.786Z,20.67
2023-05-09T08:59:01.964Z,19.55
2023-05-09T09:01:30.628Z,19.74
2023-05-09T09:03:58.465Z,20.90
2023-05-09T09:06:28.164Z,21.02
2023-05-09T09:09:00.262Z,21.65
2023-05-09T09:11:30.242Z,21.63
2023-05-09T09:14:12.784Z,20.97
2023-05-09T09:16:44.632Z,20.89
2023-05-09T09:19:20.280Z,20.77
2023-05-09T09:21:53.809Z,21.08
2023-05-09T09:24:23.473Z,21.21
2023-05-09T09:26:51.934Z,20.77
2023-05-09T09:29:23.149Z,22.03
2023-05-09T09:31:55.147Z,21.60
2023-05-09T09:34:23.992Z,22.05
2023-05-09T09:36:51.546Z,22.07
2023-05-09T09:39:18.994Z,22.36
2023-05-09T09:41:46.113Z,21.23
2023-05-09T09:44:19.940Z,22.52
2023-05-09T09:46:53.731Z,21.92
2023-05-09T09:49:35.296Z,21.26
2023-05-09T09:52:02.858Z,21.33
2023-05-09T09:54:31.708Z,22.35
2023-05-09T09:56:58.943Z,22.87
2023-05-09T09:59:27.841Z,22.45
2023-05-09T10:02:13.998Z,22.50
2023-05-09T10:04:43.349Z,23.05
2023-05-09T10:07:14.524Z,21.83
2023-05-09T10:09:44.102Z,22.91
2023-05-09T10:12:12.027Z,22.86
2023-05-09T10:14:43.191Z,22.31
2023-05-09T10:17:15.191Z,23.53
2023-05-09T10:19:53.075Z,22.28
2023-05-09T10:22:20.907Z,22.21
2023-05-09T10:25:13.112Z,22.88
2023-05-09T10:27:45.921Z,23.58
2023-05-09T10:30:22.589Z,23.42
2023-05-09T10:33:18.356Z,23.19
2023-05-09T10:35:48.065Z,24.28
2023-05-09T10:38:16.250Z,23.48
2023-05-09T10:40:49.666Z,24.02
2023-05-09T10:43:21.567Z,23.98
2023-05-09T10:45:49.030Z,23.36
2023-05-09T10:48:16.746Z,22.09
2023-05-09T10:50:45.088Z,24.57
2023-05-09T10:53:17.140Z,23.31
2023-05-09T10:56:01.939Z,23.83
2023-05-09T10:58:33.616Z,24.58
2023-05-09T11:01:03.737Z,24.74
2023-05-09T11:03:59.003Z,23.61
2023-05-09T11:06:53.993Z,24.41
2023-05-09T11:09:39.146Z,23.75
2023-05-09T11:12:14.080Z,24.76
2023-05-09T11:14:46.934Z,24.88
2023-05-09T11:17:21.931Z,24.93
2023-05-09T11:19:52.080Z,23.71
2023-05-09T11:22:37.667Z,26.66
2023-05-09T11:25:14.401Z,24.60
2023-05-09T11:27:51.090Z,24.76
2023-05-09T11:30:20.543Z,24.93
2023-05-09T11:32:59.707Z,24.38
2023-05-09T11:35:27.902Z,24.33
2023-05-09T11:38:06.634Z,24.64
2023-05-09T11:40:35.790Z,26.00
2023-05-09T11:43:03.497Z,25.07
2023-05-09T11:45:34.773Z,24.84
2023-05-09T11:48:08.739Z,24.56
2023-05-09T11:50:41.088Z,24.34
2023-05-09T11:53:12.733Z,25.09
2023-05-09T11:55:44.779Z,24.58
2023-05-09T11:58:12.113Z,25.11
2023-05-09T12:00:46.016Z,24.71
2023-05-09T12:03:14.152Z,24.21
2023-05-09T12:05:42.647Z,24.72
2023-05-09T12:08:09.805Z,25.24
2023-05-09T12:10:40.164Z,24.90
2023-05-09T12:13:07.440Z,24.55
2023-05-09T12:15:42.232Z,25.14
2023-05-09T12:18:09.385Z,25.60
2023-05-09T12:20:53.123Z,24.88
2023-05-09T12:23:20.412Z,24.34
2023-05-09T12:25:56.277Z,25.17
2023-05-09T12:28:26.555Z,26.17
2023-05-09T12:30:54.457Z,26.81
2023-05-09T12:33:22.302Z,26.21
2023-05-09T12:36:07.647Z,25.57
2023-05-09T12:38:35.004Z,25.77
2023-05-09T12:42:00.530Z,25.93
2023-05-09T12:44:29.691Z,28.47
2023-05-09T12:47:03.315Z,27.38
2023-05-09T12:49:32.381Z,25.87
2023-05-09T12:52:03.008Z,27.31
2023-05-09T12:54:32.467Z,25.79
2023-05-09T12:56:59.835Z,27.30
2023-05-09T12:59:30.630Z,27.15
2023-05-09T13:02:01.986Z,26.27
2023-05-09T13:04:29.871Z,26.66
2023-05-09T13:06:59.885Z,25.64
2023-05-09T13:09:28.089Z,26.25
2023-05-09T13:11:55.397Z,26.75
2023-05-09T13:14:23.659Z,27.10
2023-05-09T13:16:51.522Z,25.08
2023-05-09T13:19:21.980Z,27.14
2023-05-09T13:21:49.059Z,26.97
2023-05-09T13:24:16.191Z,25.60
2023-05-09T13:26:44.576Z,28.30
2023-05-09T13:29:11.665Z,27.58
2023-05-09T13:31:38.740Z,26.22
2023-05-09T13:34:05.982Z,25.22
2023-05-09T13:36:34.178Z,26.24
2023-05-09T13:39:14.383Z,26.02
2023-05-09T13:41:41.940Z,25.65
2023-05-09T13:44:09.376Z,26.92
2023-05-09T13:46:57.697Z,26.01
2023-05-09T13:49:25.102Z,25.95
2023-05-09T13:51:53.846Z,27.19
2023-05-09T13:54:25.411Z,26.10
2023-05-09T13:56:52.675Z,27.26
2023-05-09T13:59:20.111Z,27.15
2023-05-09T14:01:47.203Z,28.65
2023-05-09T14:04:14.541Z,27.38
2023-05-09T14:06:48.242Z,26.94
2023-05-09T14:09:15.943Z,26.82
2023-05-09T14:11:43.625Z,25.70
2023-05-09T14:14:14.510Z,28.59
2023-05-09T14:16:41.775Z,26.16
2023-05-09T14:19:08.926Z,27.46
2023-05-09T14:21:36.592Z,26.70
2023-05-09T14:24:04.359Z,27.61
2023-05-09T14:26:31.481Z,27.36
2023-05-09T14:28:58.865Z,27.02
2023-05-09T14:31:26.629Z,26.82
2023-05-09T14:33:53.793Z,26.31
2023-05-09T14:36:23.938Z,27.50
2023-05-09T14:38:51.225Z,27.31
2023-05-09T14:41:20.270Z,26.26
2023-05-09T14:43:49.029Z,27.53
2023-05-09T14:46:16.471Z,25.46
2023-05-09T14:48:46.120Z,26.44
2023-05-09T14:51:14.243Z,26.44
2023-05-09T14:53:44.897Z,28.13
2023-05-09T14:56:12.268Z,28.07
2023-05-09T14:58:39.338Z,28.47
2023-05-09T15:01:06.532Z,28.51
2023-05-09T15:03:36.416Z,29.20
2023-05-09T15:06:03.956Z,29.01
2023-05-09T15:08:31.334Z,29.46
2023-05-09T15:10:58.714Z,29.57
2023-05-09T15:13:26.002Z,29.02
2023-05-09T15:15:53.536Z,28.35
2023-05-09T15:18:21.560Z,29.61
2023-05-09T15:20:48.795Z,29.33
2023-05-09T15:23:18.633Z,28.53
2023-05-09T15:25:46.226Z,29.23
2023-05-09T15:28:13.404Z,30.26
2023-05-09T15:30:41.540Z,28.66
2023-05-09T15:33:09.148Z,28.76
2023-05-09T15:35:37.893Z,26.16
2023-05-09T15:38:05.003Z,28.13
2023-05-09T15:40:32.063Z,28.69
2023-05-09T15:42:59.583Z,29.58
2023-05-09T15:45:27.009Z,28.81
2023-05-09T15:47:54.587Z,29.36
2023-05-09T15:50:22.197Z,27.31
2023-05-09T15:52:49.546Z,27.49
2023-05-09T15:55:19.942Z,27.36
2023-05-09T15:57:48.174Z,27.32
2023-05-09T16:00:17.484Z,26.93
2023-05-09T16:02:45.105Z,27.50
2023-05-09T16:05:12.937Z,25.69
2023-05-09T16:07:45.771Z,26.93
2023-05-09T16:10:14.361Z,26.34
2023-05-09T16:12:41.724Z,25.70
2023-05-09T16:15:09.909Z,26.85
2023-05-09T16:17:37.217Z,25.92
2023-05-09T16:20:05.235Z,25.46
2023-05-09T16:22:34.593Z,26.44
2023-05-09T16:25:01.761Z,25.09
2023-05-09T16:27:28.910Z,26.31
2023-05-09T16:29:56.071Z,26.47
2023-05-09T16:32:23.150Z,24.63
2023-05-09T16:34:50.564Z,24.72
2023-05-09T16:37:18.989Z,26.40
2023-05-09T16:39:46.441Z,25.20
2023-05-09T16:42:13.573Z,25.41
2023-05-09T16:44:40.717Z,25.49
2023-05-09T16:47:07.830Z,25.18
2023-05-09T16:49:38.729Z,26.43
2023-05-09T16:52:05.895Z,25.69
2023-05-09T16:54:32.949Z,25.79
2023-05-09T16:57:03.204Z,26.26
2023-05-09T16:59:30.761Z,26.43
2023-05-09T17:01:58.013Z,25.08
2023-05-09T17:04:25.690Z,24.66
2023-05-09T17:06:55.395Z,24.15
2023-05-09T17:09:22.586Z,23.40
2023-05-09T17:11:49.638Z,23.09
2023-05-09T17:14:19.465Z,23.20
2023-05-09T17:16:46.590Z,23.72
2023-05-09T17:19:14.320Z,22.57
2023-05-09T17:21:41.878Z,23.03
2023-05-09T17:24:10.087Z,23.71
2023-05-09T17:26:38.613Z,22.84
2023-05-09T17:29:06.223Z,23.08
2023-05-09T17:31:33.398Z,22.51
2023-05-09T17:34:04.257Z,22.49
2023-05-09T17:36:31.760Z,22.14
2023-05-09T17:38:58.774Z,22.51
2023-05-09T17:41:25.912Z,22.59
2023-05-09T17:43:56.337Z,23.11
2023-05-09T17:46:23.918Z,22.12
2023-05-09T17:48:51.459Z,21.26
2023-05-09T17:51:18.705Z,21.69
2023-05-09T17:53:47.838Z,22.66
2023-05-09T17:56:14.875Z,21.99
2023-05-09T17:58:42.149Z,21.34
2023-05-09T18:01:09.673Z,21.85
2023-05-09T18:03:36.850Z,21.52
2023-05-09T18:06:04.451Z,21.70
2023-05-09T18:08:31.564Z,20.89
2023-05-09T18:10:58.887Z,20.62
2023-05-09T18:13:26.058Z,20.67
2023-05-09T18:15:55.035Z,20.59
2023-05-09T18:18:22.988Z,20.43
2023-05-09T18:20:50.206Z,19.88
2023-05-09T18:23:17.401Z,19.62
2023-05-09T18:25:46.811Z,19.40
2023-05-09T18:28:14.004Z,19.25
2023-05-09T18:30:41.168Z,19.06
2023-05-09T18:33:08.649Z,19.00
2023-05-09T18:35:35.778Z,19.08
2023-05-09T18:38:03.025Z,18.93
2023-05-09T18:40:30.556Z,18.75
2023-05-09T18:42:57.578Z,18.93
2023-05-09T18:45:25.041Z,18.62
2023-05-09T18:47:52.227Z,18.61
2023-05-09T18:50:19.635Z,18.52
2023-05-09T18:52:46.691Z,18.16
2023-05-09T18:55:19.609Z,18.58
2023-05-09T18:57:47.482Z,18.50
2023-05-09T19:00:16.059Z,18.22
2023-05-09T19:02:43.357Z,18.17
2023-05-09T19:05:10.809Z,18.12
2023-05-09T19:07:38.633Z,17.40
2023-05-09T19:10:08.270Z,18.01
2023-05-09T19:12:35.374Z,17.43
2023-05-09T19:15:03.109Z,17.49
2023-05-09T19:17:30.426Z,17.50
2023-05-09T19:19:57.498Z,17.91
2023-05-09T19:22:24.563Z,17.42
2023-05-09T19:24:52.025Z,17.18
2023-05-09T19:27:19.123Z,17.32
2023-05-09T19:29:47.512Z,17.48
2023-05-09T19:32:17.884Z,17.51
2023-05-09T19:34:44.954Z,17.35
2023-05-09T19:37:12.126Z,17.22
2023-05-09T19:39:39.193Z,17.29
2023-05-09T19:42:06.444Z,16.93
2023-05-09T19:44:33.531Z,17.21
2023-05-09T19:47:05.023Z,17.04
2023-05-09T19:49:32.647Z,17.21
2023-05-09T19:51:59.694Z,17.64
2023-05-09T19:54:30.490Z,17.45
2023-05-09T19:56:57.550Z,17.33
2023-05-09T19:59:24.702Z,17.20
2023-05-09T20:01:51.797Z,17.38
2023-05-09T20:04:21.748Z,17.00
2023-05-09T20:06:48.992Z,17.11
2023-05-09T20:09:20.712Z,16.70
2023-05-09T20:11:56.878Z,16.42
2023-05-09T20:14:26.030Z,16.95
2023-05-09T20:16:53.113Z,16.96
2023-05-09T20:19:23.325Z,17.05
2023-05-09T20:21:50.669Z,16.97
2023-05-09T20:24:18.018Z,16.23
2023-05-09T20:26:45.195Z,16.36
2023-05-09T20:29:12.293Z,16.91
2023-05-09T20:31:39.626Z,16.98
2023-05-09T20:34:10.440Z,16.98
2023-05-09T20:36:38.162Z,16.82
2023-05-09T20:39:05.220Z,16.65
2023-05-09T20:41:34.845Z,16.79
2023-05-09T20:44:06.282Z,16.71
2023-05-09T20:46:34.345Z,16.26
2023-05-09T20:49:02.542Z,16.32
2023-05-09T20:51:31.512Z,16.52
2023-05-09T20:53:59.829Z,16.68
2023-05-09T20:56:28.560Z,16.13
2023-05-09T20:58:59.796Z,16.03
2023-05-09T21:01:27.193Z,16.75
2023-05-09T21:03:54.332Z,16.43
2023-05-09T21:06:21.556Z,16.24
2023-05-09T21:08:48.617Z,15.84
2023-05-09T21:11:15.799Z,16.18
2023-05-09T21:13:42.828Z,16.58
2023-05-09T21:16:09.907Z,16.04
2023-05-09T21:18:36.953Z,16.51
2023-05-09T21:21:08.874Z,16.07
2023-05-09T21:23:36.070Z,15.97
2023-05-09T21:26:03.212Z,15.91
2023-05-09T21:28:30.362Z,15.98
2023-05-09T21:31:01.479Z,15.96
2023-05-09T21:33:28.914Z,15.71
2023-05-09T21:35:56.098Z,16.02
2023-05-09T21:38:23.374Z,15.40
2023-05-09T21:40:51.409Z,15.69
2023-05-09T21:43:19.481Z,15.44
2023-05-09T21:45:46.603Z,15.59
2023-05-09T21:48:13.892Z,15.67
2023-05-09T21:50:43.559Z,15.26
2023-05-09T21:53:10.799Z,15.46
2023-05-09T21:55:37.882Z,15.54
2023-05-09T21:58:04.960Z,15.80
2023-05-09T22:00:32.038Z,15.66
2023-05-09T22:02:59.529Z,15.26
2023-05-09T22:05:26.650Z,15.54
2023-05-09T22:07:53.679Z,15.46
2023-05-09T22:10:20.791Z,15.95
2023-05-09T22:12:47.992Z,15.77
2023-05-09T22:15:15.133Z,15.26
2023-05-09T22:17:45.427Z,15.33
2023-05-09T22:20:13.076Z,15.69
2023-05-09T22:22:40.183Z,15.53
2023-05-09T22:25:07.773Z,15.19
2023-05-09T22:27:34.873Z,15.30
2023-05-09T22:30:02.751Z,14.92
2023-05-09T22:32:29.847Z,15.41
2023-05-09T22:34:56.991Z,14.86
2023-05-09T22:37:24.029Z,14.87
2023-05-09T22:39:54.066Z,14.73
2023-05-09T22:42:21.156Z,14.89
2023-05-09T22:44:49.715Z,14.44
2023-05-09T22:47:16.933Z,14.81
2023-05-09T22:49:45.739Z,14.68
2023-05-09T22:52:13.155Z,14.41
2023-05-09T22:54:40.534Z,14.26
2023-05-09T22:57:07.658Z,14.77
2023-05-09T22:59:34.859Z,14.30
2023-05-09T23:02:01.963Z,14.98
2023-05-09T23:04:31.406Z,14.56
2023-05-09T23:06:58.510Z,14.76
2023-05-09T23:09:25.666Z,14.35
2023-05-09T23:11:52.782Z,14.58
2023-05-09T23:14:22.150Z,14.31
2023-05-09T23:16:49.252Z,13.76
2023-05-09T23:19:16.572Z,14.09
2023-05-09T23:21:43.638Z,13.93
2023-05-09T23:24:10.707Z,13.96
2023-05-09T23:26:37.806Z,14.19
2023-05-09T23:29:04.888Z,14.19
2023-05-09T23:31:32.004Z,14.45
2023-05-09T23:33:59.880Z,14.02
2023-05-09T23:36:26.954Z,14.44
2023-05-09T23:38:54.168Z,13.82
2023-05-09T23:41:21.942Z,14.38
2023-05-09T23:43:48.994Z,14.01
2023-05-09T23:46:16.231Z,14.10
2023-05-09T23:48:43.372Z,13.87
2023-05-09T23:51:10.425Z,13.58
2023-05-09T23:53:37.533Z,13.54
2023-05-09T23:56:06.621Z,13.58
2023-05-09T23:58:33.785Z,13.63
